Time;durP1;ratioP1;P1;durP2;ratioP2;P2;SDS_P1;SDS_P2;PMS_P1;PMS_P2;Temp;Humidity;BMP_temperature;BMP_pressure;BME280_temperature;BME280_humidity;BME280_pressure;Samples;Min_cycle;Max_cycle;Signal;HPM_P1;HPM_P2
2023/04/05 00:01:25;;;;;;;3.30;3.20;;;;;;;;;;6208798;23;20379;-66
2023/04/05 00:03:55;;;;;;;3.60;3.30;;;;;;;;;;6208022;23;20399;-67
2023/04/05 00:06:25;;;;;;;2.73;2.53;;;;;;;;;;6211529;23;20383;-70
2023/04/05 00:08:54;;;;;;;3.60;3.40;;;;;;;;;;6211510;23;20436;-72
2023/04/05 00:11:21;;;;;;;2.73;2.63;;;;;;;;;;6211016;23;20379;-71
2023/04/05 00:13:47;;;;;;;2.50;2.40;;;;;;;;;;6211061;23;20378;-67
2023/04/05 00:16:13;;;;;;;3.70;2.80;;;;;;;;;;6211262;23;20722;-68
2023/04/05 00:18:44;;;;;;;3.40;3.10;;;;;;;;;;6211486;23;20371;-69
2023/04/05 00:21:13;;;;;;;2.97;2.77;;;;;;;;;;6210755;23;20466;-67
2023/04/05 00:23:40;;;;;;;2.53;2.33;;;;;;;;;;6209773;23;20873;-69
2023/04/05 00:26:06;;;;;;;2.60;2.47;;;;;;;;;;6210985;23;20410;-69
2023/04/05 00:28:32;;;;;;;3.20;3.10;;;;;;;;;;6211296;23;20394;-67
2023/04/05 00:30:58;;;;;;;3.43;3.07;;;;;;;;;;6211014;23;20375;-70
2023/04/05 00:33:24;;;;;;;4.03;2.80;;;;;;;;;;6211086;23;20444;-68
2023/04/05 00:35:50;;;;;;;2.90;2.50;;;;;;;;;;6209840;23;20441;-68
2023/04/05 00:38:16;;;;;;;5.90;2.90;;;;;;;;;;6184976;23;20371;-69
2023/04/05 00:40:42;;;;;;;3.30;3.10;;;;;;;;;;6210694;23;20390;-68
2023/04/05 00:43:08;;;;;;;3.20;3.00;;;;;;;;;;6209459;23;20391;-68
2023/04/05 00:45:34;;;;;;;3.33;3.23;;;;;;;;;;6211237;23;20802;-71
2023/04/05 00:48:00;;;;;;;2.80;2.70;;;;;;;;;;6211056;23;20383;-68
2023/04/05 00:50:29;;;;;;;2.77;2.67;;;;;;;;;;6210882;23;20466;-69
2023/04/05 00:52:57;;;;;;;2.70;2.50;;;;;;;;;;6210490;23;20374;-72
2023/04/05 00:55:23;;;;;;;2.20;2.10;;;;;;;;;;6209484;23;20444;-69
2023/04/05 00:57:49;;;;;;;2.93;2.60;;;;;;;;;;6211058;23;20474;-69
2023/04/05 01:00:15;;;;;;;2.00;2.00;;;;;;;;;;6210150;23;20970;-73
2023/04/05 01:02:46;;;;;;;6.63;2.50;;;;;;;;;;6211020;23;20868;-75
2023/04/05 01:05:19;;;;;;;2.63;2.43;;;;;;;;;;6211276;23;20429;-68
2023/04/05 01:08:04;;;;;;;3.03;2.93;;;;;;;;;;6211164;23;20355;-67
2023/04/05 01:10:32;;;;;;;2.40;2.30;;;;;;;;;;6210577;23;20375;-70
2023/04/05 01:12:58;;;;;;;2.33;2.23;;;;;;;;;;6210840;23;20376;-74
2023/04/05 01:15:24;;;;;;;2.60;2.50;;;;;;;;;;6210103;23;20441;-68
2023/04/05 01:17:52;;;;;;;3.40;3.20;;;;;;;;;;6210589;23;20727;-68
2023/04/05 01:20:19;;;;;;;2.80;2.70;;;;;;;;;;6210377;23;20389;-71
2023/04/05 01:22:54;;;;;;;2.73;2.50;;;;;;;;;;6210784;23;20379;-66
2023/04/05 01:25:39;;;;;;;2.50;2.40;;;;;;;;;;6210594;23;20456;-69
2023/04/05 01:28:07;;;;;;;2.00;2.00;;;;;;;;;;6210537;23;20371;-72
2023/04/05 01:30:41;;;;;;;2.40;2.30;;;;;;;;;;6210332;23;20466;-73
2023/04/05 01:33:33;;;;;;;2.30;2.27;;;;;;;;;;6208908;23;20425;-72
2023/04/05 01:36:02;;;;;;;2.63;2.53;;;;;;;;;;6210321;23;20430;-68
2023/04/05 01:38:29;;;;;;;2.07;1.97;;;;;;;;;;6211037;23;20379;-68
2023/04/05 01:40:55;;;;;;;2.60;2.40;;;;;;;;;;6210165;23;20788;-69
2023/04/05 01:43:21;;;;;;;3.23;2.80;;;;;;;;;;6210274;23;20371;-68
2023/04/05 01:45:47;;;;;;;2.43;2.30;;;;;;;;;;6208767;23;20413;-68
2023/04/05 01:48:13;;;;;;;4.10;3.27;;;;;;;;;;6210244;23;20375;-67
2023/04/05 01:50:40;;;;;;;2.50;2.40;;;;;;;;;;6210267;23;20429;-68
2023/04/05 01:53:09;;;;;;;5.23;3.03;;;;;;;;;;6210181;23;20416;-75
2023/04/05 01:55:35;;;;;;;8.07;5.35;;;;;;;;;;6206946;23;20864;-67
2023/04/05 01:58:01;;;;;;;4.37;3.97;;;;;;;;;;6210228;23;20152;-66
2023/04/05 02:00:27;;;;;;;2.83;2.83;;;;;;;;;;6209376;23;20385;-68
2023/04/05 02:02:53;;;;;;;4.27;3.70;;;;;;;;;;6209844;23;20417;-67
2023/04/05 02:05:19;;;;;;;2.90;2.67;;;;;;;;;;6210271;23;20379;-69
2023/04/05 02:07:45;;;;;;;2.70;2.60;;;;;;;;;;6210682;23;20374;-68
2023/04/05 02:10:11;;;;;;;3.50;3.37;;;;;;;;;;6209644;23;20383;-71
2023/04/05 02:12:37;;;;;;;4.87;4.57;;;;;;;;;;6210667;23;20379;-67
2023/04/05 02:15:03;;;;;;;6.10;4.17;;;;;;;;;;6209659;23;21036;-70
2023/04/05 02:17:32;;;;;;;5.10;4.70;;;;;;;;;;6209919;23;20921;-70
2023/04/05 02:20:01;;;;;;;10.70;6.33;;;;;;;;;;6210051;23;20367;-68
2023/04/05 02:22:27;;;;;;;8.53;7.67;;;;;;;;;;6209872;23;20379;-68
2023/04/05 02:24:53;;;;;;;8.43;5.17;;;;;;;;;;6209930;23;20379;-70
2023/04/05 02:27:19;;;;;;;3.43;3.23;;;;;;;;;;6210020;23;20466;-67
2023/04/05 02:29:45;;;;;;;5.83;3.20;;;;;;;;;;6209508;23;20382;-68
2023/04/05 02:32:11;;;;;;;2.90;2.70;;;;;;;;;;6209471;23;20718;-68
2023/04/05 02:34:40;;;;;;;2.50;2.30;;;;;;;;;;6209677;23;20431;-68
2023/04/05 02:37:06;;;;;;;2.17;2.07;;;;;;;;;;6209758;23;20773;-67
2023/04/05 02:39:32;;;;;;;2.03;2.03;;;;;;;;;;6210077;23;21133;-67
2023/04/05 02:41:58;;;;;;;1.67;1.67;;;;;;;;;;6209881;23;20470;-67
2023/04/05 02:44:24;;;;;;;3.90;1.93;;;;;;;;;;6207706;23;20734;-71
2023/04/05 02:46:50;;;;;;;2.07;2.07;;;;;;;;;;6209841;23;21164;-68
2023/04/05 02:49:16;;;;;;;2.27;2.17;;;;;;;;;;6210125;23;20453;-71
2023/04/05 02:51:42;;;;;;;2.83;2.17;;;;;;;;;;6209341;23;20394;-68
2023/04/05 02:54:08;;;;;;;2.50;2.40;;;;;;;;;;6209575;23;20363;-70
2023/04/05 02:56:34;;;;;;;3.50;2.83;;;;;;;;;;6209536;23;20461;-69
2023/04/05 02:59:00;;;;;;;2.37;2.27;;;;;;;;;;6209700;23;20728;-69
2023/04/05 03:01:26;;;;;;;2.57;2.37;;;;;;;;;;6209254;23;20382;-69
2023/04/05 03:03:52;;;;;;;2.10;2.00;;;;;;;;;;6208477;23;20399;-69
2023/04/05 03:06:19;;;;;;;6.70;2.23;;;;;;;;;;6209274;23;20860;-68
2023/04/05 03:14:53;;;;;;;3.50;2.73;;;;;;;;;;6207640;23;20437;-70
2023/04/05 03:17:20;;;;;;;4.30;3.20;;;;;;;;;;6208079;23;20391;-69
2023/04/05 03:19:45;;;;;;;3.80;2.53;;;;;;;;;;6209800;23;20852;-69
2023/04/05 03:22:11;;;;;;;3.50;2.50;;;;;;;;;;6208959;23;20371;-69
2023/04/05 03:24:37;;;;;;;2.27;2.17;;;;;;;;;;6209767;23;20383;-70
2023/04/05 03:27:04;;;;;;;6.30;3.23;;;;;;;;;;6208192;23;20494;-70
2023/04/05 03:29:30;;;;;;;2.77;2.57;;;;;;;;;;6209700;23;20382;-69
2023/04/05 03:31:59;;;;;;;8.17;4.63;;;;;;;;;;6209345;23;20375;-67
2023/04/05 03:34:28;;;;;;;3.07;2.87;;;;;;;;;;6209749;23;20426;-69
2023/04/05 03:36:54;;;;;;;3.73;3.60;;;;;;;;;;6207834;23;20508;-68
2023/04/05 03:39:20;;;;;;;3.13;2.93;;;;;;;;;;6210147;23;20383;-65
2023/04/05 03:41:46;;;;;;;4.00;2.70;;;;;;;;;;6210617;23;20537;-69
2023/04/05 03:44:12;;;;;;;2.30;2.10;;;;;;;;;;6211303;23;20474;-68
2023/04/05 03:46:38;;;;;;;2.83;2.63;;;;;;;;;;6211628;23;20682;-69
2023/04/05 03:49:06;;;;;;;4.40;2.97;;;;;;;;;;6210188;23;20452;-68
2023/04/05 03:51:32;;;;;;;2.77;2.57;;;;;;;;;;6211074;23;20375;-69
2023/04/05 03:53:58;;;;;;;10.57;2.80;;;;;;;;;;6211875;23;20481;-71
2023/04/05 03:56:24;;;;;;;2.50;2.40;;;;;;;;;;6211749;23;20464;-70
2023/04/05 03:58:51;;;;;;;2.50;2.40;;;;;;;;;;6211431;23;20809;-68
2023/04/05 04:01:17;;;;;;;2.67;2.57;;;;;;;;;;6210723;23;20386;-67
2023/04/05 04:03:43;;;;;;;3.00;2.70;;;;;;;;;;6211285;23;20774;-67
2023/04/05 04:06:10;;;;;;;2.50;2.50;;;;;;;;;;6211419;23;20477;-66
2023/04/05 04:08:36;;;;;;;4.20;2.70;;;;;;;;;;6209955;23;20489;-69
2023/04/05 04:11:02;;;;;;;4.97;2.73;;;;;;;;;;6211373;23;20474;-71
2023/04/05 04:13:28;;;;;;;2.67;2.50;;;;;;;;;;6211073;23;20410;-71
2023/04/05 04:15:54;;;;;;;2.97;2.77;;;;;;;;;;6211054;23;20434;-66
2023/04/05 04:18:20;;;;;;;3.97;3.10;;;;;;;;;;6211349;23;20390;-68
2023/04/05 04:20:47;;;;;;;3.03;2.87;;;;;;;;;;6210711;23;20387;-69
2023/04/05 04:23:13;;;;;;;2.50;2.50;;;;;;;;;;6210300;23;20533;-70
2023/04/05 04:25:40;;;;;;;6.13;3.40;;;;;;;;;;6208737;23;20966;-68
2023/04/05 04:28:06;;;;;;;6.30;3.70;;;;;;;;;;6210897;23;20387;-66
2023/04/05 04:30:37;;;;;;;11.40;2.70;;;;;;;;;;6211238;23;20872;-66
2023/04/05 04:33:03;;;;;;;2.17;2.17;;;;;;;;;;6211136;23;20912;-66
2023/04/05 04:35:33;;;;;;;3.20;3.10;;;;;;;;;;6209623;23;20431;-65
2023/04/05 04:38:06;;;;;;;4.03;2.90;;;;;;;;;;6210025;23;20437;-67
2023/04/05 04:40:46;;;;;;;3.50;3.30;;;;;;;;;;6210492;23;20379;-67
2023/04/05 04:43:13;;;;;;;2.63;2.53;;;;;;;;;;6209911;23;20417;-65
2023/04/05 04:45:45;;;;;;;2.93;2.73;;;;;;;;;;6209569;23;20482;-66
2023/04/05 04:48:13;;;;;;;2.63;2.50;;;;;;;;;;6210815;23;20387;-68
2023/04/05 04:50:39;;;;;;;2.90;2.80;;;;;;;;;;6210519;23;20383;-68
2023/04/05 04:53:05;;;;;;;2.97;2.87;;;;;;;;;;6210674;23;20917;-68
2023/04/05 04:55:32;;;;;;;2.43;2.43;;;;;;;;;;6211013;23;20434;-71
2023/04/05 04:57:58;;;;;;;5.13;3.00;;;;;;;;;;6207738;23;20419;-67
2023/04/05 05:00:25;;;;;;;2.97;2.60;;;;;;;;;;6210257;23;20406;-68
2023/04/05 05:02:55;;;;;;;2.70;2.60;;;;;;;;;;6210776;23;20375;-69
2023/04/05 05:05:21;;;;;;;2.80;2.70;;;;;;;;;;6210448;23;20433;-69
2023/04/05 05:07:48;;;;;;;3.83;3.53;;;;;;;;;;6211047;23;20760;-67
2023/04/05 05:10:15;;;;;;;4.10;3.10;;;;;;;;;;6210481;23;20398;-71
2023/04/05 05:12:41;;;;;;;7.40;3.00;;;;;;;;;;6210348;23;20465;-73
2023/04/05 05:15:07;;;;;;;4.40;3.40;;;;;;;;;;6211149;23;20445;-68
2023/04/05 05:17:34;;;;;;;5.40;4.27;;;;;;;;;;6209796;23;20386;-69
2023/04/05 05:20:00;;;;;;;5.30;4.80;;;;;;;;;;6211076;23;20391;-65
2023/04/05 05:22:26;;;;;;;3.50;3.40;;;;;;;;;;6210297;23;20371;-67
2023/04/05 05:24:52;;;;;;;3.97;3.67;;;;;;;;;;6211120;23;20382;-67
2023/04/05 05:27:18;;;;;;;2.77;2.67;;;;;;;;;;6210524;23;20422;-67
2023/04/05 05:29:44;;;;;;;3.30;3.10;;;;;;;;;;6210229;23;20379;-66
2023/04/05 05:32:15;;;;;;;3.37;3.07;;;;;;;;;;6209942;23;20425;-67
2023/04/05 05:34:43;;;;;;;3.80;3.70;;;;;;;;;;6210619;23;20485;-71
2023/04/05 05:37:09;;;;;;;3.53;3.37;;;;;;;;;;6209855;23;20473;-72
2023/04/05 05:39:35;;;;;;;4.40;3.37;;;;;;;;;;6210930;23;20383;-65
2023/04/05 05:42:02;;;;;;;5.60;3.30;;;;;;;;;;6209876;23;20845;-66
2023/04/05 05:44:28;;;;;;;3.17;3.07;;;;;;;;;;6208274;23;20398;-64
2023/04/05 05:46:54;;;;;;;4.37;3.67;;;;;;;;;;6210285;23;20433;-64
2023/04/05 05:49:20;;;;;;;3.90;3.67;;;;;;;;;;6209927;23;20395;-66
2023/04/05 05:51:46;;;;;;;4.67;3.60;;;;;;;;;;6209989;23;20375;-65
2023/04/05 05:54:12;;;;;;;5.50;4.97;;;;;;;;;;6206144;23;20379;-65
2023/04/05 05:56:38;;;;;;;4.30;4.00;;;;;;;;;;6209435;23;20951;-65
2023/04/05 05:59:05;;;;;;;4.77;4.00;;;;;;;;;;6209757;23;20403;-65
2023/04/05 06:01:33;;;;;;;5.13;4.47;;;;;;;;;;6209782;23;20944;-65
2023/04/05 06:03:59;;;;;;;6.37;5.77;;;;;;;;;;6209579;23;20371;-65
2023/04/05 06:06:25;;;;;;;6.50;5.70;;;;;;;;;;6209799;23;20430;-65
2023/04/05 06:08:51;;;;;;;5.03;4.50;;;;;;;;;;6210171;23;20375;-65
2023/04/05 06:11:18;;;;;;;7.43;4.27;;;;;;;;;;6208982;23;20445;-65
2023/04/05 06:13:44;;;;;;;5.00;4.17;;;;;;;;;;6183450;23;20379;-65
2023/04/05 06:16:10;;;;;;;4.50;4.10;;;;;;;;;;6208753;23;20518;-65
2023/04/05 06:18:36;;;;;;;7.70;3.67;;;;;;;;;;6209373;23;20376;-66
2023/04/05 06:21:02;;;;;;;7.23;6.20;;;;;;;;;;6210019;23;20478;-65
2023/04/05 06:23:28;;;;;;;8.87;7.70;;;;;;;;;;6210659;23;20389;-65
2023/04/05 06:25:55;;;;;;;16.50;7.20;;;;;;;;;;6209324;23;20428;-65
2023/04/05 06:28:21;;;;;;;8.17;5.53;;;;;;;;;;6209832;23;20379;-65
2023/04/05 06:30:47;;;;;;;10.73;4.00;;;;;;;;;;6210058;23;20449;-66
2023/04/05 06:33:13;;;;;;;3.53;3.33;;;;;;;;;;6209253;23;20379;-66
2023/04/05 06:35:39;;;;;;;3.53;3.30;;;;;;;;;;6206229;23;20606;-65
2023/04/05 06:38:05;;;;;;;3.23;3.17;;;;;;;;;;6208868;23;20522;-65
2023/04/05 06:40:31;;;;;;;8.40;4.13;;;;;;;;;;6208345;23;20415;-65
2023/04/05 06:42:58;;;;;;;3.50;3.40;;;;;;;;;;6209659;23;20407;-65
2023/04/05 06:45:25;;;;;;;3.50;3.20;;;;;;;;;;6209318;23;20995;-65
2023/04/05 06:47:51;;;;;;;8.60;4.53;;;;;;;;;;6208500;23;20382;-65
2023/04/05 06:50:17;;;;;;;4.10;3.80;;;;;;;;;;6207588;23;20437;-67
2023/04/05 06:52:43;;;;;;;5.13;4.20;;;;;;;;;;6209526;23;20466;-67
2023/04/05 06:55:09;;;;;;;6.13;4.00;;;;;;;;;;6208433;23;20482;-61
2023/04/05 06:57:35;;;;;;;4.53;3.40;;;;;;;;;;6207676;23;20379;-61
2023/04/05 07:00:01;;;;;;;3.93;3.83;;;;;;;;;;6208309;23;20886;-67
2023/04/05 07:02:27;;;;;;;4.30;4.00;;;;;;;;;;6207878;23;20659;-65
2023/04/05 07:04:55;;;;;;;4.20;4.00;;;;;;;;;;6209809;23;20732;-67
2023/04/05 07:07:21;;;;;;;4.47;4.07;;;;;;;;;;6210026;23;20379;-67
2023/04/05 07:09:46;;;;;;;5.13;3.87;;;;;;;;;;6209988;23;20508;-70
2023/04/05 07:12:13;;;;;;;3.80;3.70;;;;;;;;;;6208064;23;20398;-66
2023/04/05 07:14:39;;;;;;;3.93;3.67;;;;;;;;;;6210019;23;20513;-66
2023/04/05 07:17:05;;;;;;;3.73;3.53;;;;;;;;;;6211922;23;20410;-66
2023/04/05 07:19:31;;;;;;;4.57;3.77;;;;;;;;;;6211833;23;20375;-66
2023/04/05 07:21:58;;;;;;;4.30;4.00;;;;;;;;;;6211793;23;20386;-65
2023/04/05 07:24:24;;;;;;;3.57;3.40;;;;;;;;;;6211157;23;20428;-65
2023/04/05 07:26:50;;;;;;;3.27;3.20;;;;;;;;;;6211707;23;20829;-66
2023/04/05 07:29:16;;;;;;;3.37;3.27;;;;;;;;;;6211514;23;20881;-65
2023/04/05 07:31:42;;;;;;;3.50;3.30;;;;;;;;;;6211739;23;20403;-65
2023/04/05 07:34:08;;;;;;;3.90;3.60;;;;;;;;;;6211938;23;20386;-65
2023/04/05 07:36:36;;;;;;;3.30;3.20;;;;;;;;;;6211365;23;20990;-65
2023/04/05 07:39:02;;;;;;;3.90;3.70;;;;;;;;;;6212275;23;20390;-66
2023/04/05 07:41:34;;;;;;;4.30;4.00;;;;;;;;;;6211273;23;20395;-66
2023/04/05 07:44:00;;;;;;;4.50;4.10;;;;;;;;;;6211282;23;20360;-66
2023/04/05 07:46:26;;;;;;;4.70;4.30;;;;;;;;;;6211277;23;20811;-66
2023/04/05 07:48:52;;;;;;;3.70;3.57;;;;;;;;;;6211995;23;20727;-66
2023/04/05 07:51:18;;;;;;;4.40;4.20;;;;;;;;;;6211484;23;20386;-65
2023/04/05 07:53:44;;;;;;;3.40;3.10;;;;;;;;;;6211675;23;20382;-65
2023/04/05 07:56:13;;;;;;;10.93;3.50;;;;;;;;;;6210786;23;20435;-65
2023/04/05 07:58:39;;;;;;;8.30;6.97;;;;;;;;;;6210399;23;20379;-65
2023/04/05 08:01:06;;;;;;;25.77;14.43;;;;;;;;;;6209698;23;20867;-65
2023/04/05 08:03:33;;;;;;;13.90;8.57;;;;;;;;;;6211505;23;20414;-65
2023/04/05 08:06:09;;;;;;;6.50;3.47;;;;;;;;;;6210858;23;20387;-65
2023/04/05 08:08:36;;;;;;;4.30;3.23;;;;;;;;;;6209669;23;20398;-65
2023/04/05 08:11:05;;;;;;;10.10;4.30;;;;;;;;;;6210223;23;20394;-66
2023/04/05 08:13:32;;;;;;;5.80;2.90;;;;;;;;;;6210562;23;21123;-66
2023/04/05 08:15:59;;;;;;;3.20;3.10;;;;;;;;;;6210929;23;20439;-65
2023/04/05 08:18:25;;;;;;;4.70;4.13;;;;;;;;;;6211107;23;20379;-65
2023/04/05 08:20:53;;;;;;;3.73;3.50;;;;;;;;;;6208659;23;20437;-65
2023/04/05 08:23:19;;;;;;;3.60;3.30;;;;;;;;;;6211399;23;20385;-65
2023/04/05 08:25:45;;;;;;;3.60;3.40;;;;;;;;;;6211379;23;20478;-65
2023/04/05 08:28:11;;;;;;;4.53;3.63;;;;;;;;;;6210968;23;20401;-65
2023/04/05 08:30:37;;;;;;;9.50;3.67;;;;;;;;;;6210818;23;20388;-65
2023/04/05 08:33:03;;;;;;;3.47;3.30;;;;;;;;;;6211573;23;20383;-66
2023/04/05 08:35:29;;;;;;;3.23;2.93;;;;;;;;;;6211039;23;20495;-65
2023/04/05 08:37:56;;;;;;;3.30;3.20;;;;;;;;;;6211102;23;20590;-65
2023/04/05 08:40:25;;;;;;;9.93;2.60;;;;;;;;;;6210701;23;20383;-65
2023/04/05 08:43:01;;;;;;;3.20;3.00;;;;;;;;;;6210966;23;20379;-65
2023/04/05 08:45:28;;;;;;;2.30;2.20;;;;;;;;;;6210709;23;20363;-65
2023/04/05 08:47:54;;;;;;;2.60;2.53;;;;;;;;;;6211519;23;20451;-66
2023/04/05 08:50:20;;;;;;;3.90;3.60;;;;;;;;;;6210786;23;20386;-65
2023/04/05 08:52:48;;;;;;;3.27;3.17;;;;;;;;;;6210595;23;20379;-66
2023/04/05 08:55:14;;;;;;;3.17;2.97;;;;;;;;;;6210754;23;20809;-65
2023/04/05 08:57:42;;;;;;;2.60;2.50;;;;;;;;;;6210825;23;20415;-66
2023/04/05 09:00:09;;;;;;;4.03;2.33;;;;;;;;;;6208917;23;20395;-65
2023/04/05 09:02:35;;;;;;;2.60;2.50;;;;;;;;;;6211070;23;20705;-65
2023/04/05 09:05:02;;;;;;;9.50;2.93;;;;;;;;;;6210957;23;20402;-65
2023/04/05 09:07:30;;;;;;;3.57;3.47;;;;;;;;;;6210626;23;20379;-65
2023/04/05 09:09:58;;;;;;;2.70;2.50;;;;;;;;;;6210914;23;20421;-65
2023/04/05 09:12:25;;;;;;;2.90;2.70;;;;;;;;;;6210217;23;20429;-66
2023/04/05 09:14:51;;;;;;;4.10;2.47;;;;;;;;;;6211058;23;20485;-67
2023/04/05 09:17:20;;;;;;;3.30;3.17;;;;;;;;;;6210714;23;20364;-66
2023/04/05 09:19:49;;;;;;;2.70;2.60;;;;;;;;;;6211207;23;20379;-65
2023/04/05 09:22:17;;;;;;;3.67;3.47;;;;;;;;;;6210868;23;20375;-66
2023/04/05 09:24:45;;;;;;;6.00;5.23;;;;;;;;;;6210461;23;20474;-66
2023/04/05 09:27:11;;;;;;;2.63;2.53;;;;;;;;;;6210152;23;20835;-66
2023/04/05 09:29:39;;;;;;;3.70;3.07;;;;;;;;;;6209268;23;20411;-66
2023/04/05 09:32:06;;;;;;;5.03;3.03;;;;;;;;;;6210254;23;20375;-66
2023/04/05 09:34:32;;;;;;;3.00;2.90;;;;;;;;;;6210536;23;20753;-66
2023/04/05 09:37:01;;;;;;;2.70;2.50;;;;;;;;;;6209318;23;20497;-66
2023/04/05 09:39:31;;;;;;;3.87;3.53;;;;;;;;;;6209667;23;20383;-66
2023/04/05 09:42:26;;;;;;;6.60;2.93;;;;;;;;;;6207896;23;20900;-66
2023/04/05 09:44:56;;;;;;;3.03;2.83;;;;;;;;;;6184926;23;20395;-67
2023/04/05 09:47:29;;;;;;;3.90;2.57;;;;;;;;;;6209523;23;20410;-65
2023/04/05 09:49:56;;;;;;;3.20;3.00;;;;;;;;;;6208403;23;21310;-65
2023/04/05 09:52:26;;;;;;;2.97;2.87;;;;;;;;;;6209900;23;20383;-65
2023/04/05 09:54:55;;;;;;;2.90;2.70;;;;;;;;;;6210288;23;20437;-66
2023/04/05 09:57:22;;;;;;;3.90;3.60;;;;;;;;;;6206710;23;20391;-65
2023/04/05 09:59:48;;;;;;;4.50;2.73;;;;;;;;;;6209114;23;20380;-66
2023/04/05 10:02:15;;;;;;;1.93;1.93;;;;;;;;;;6207330;23;20387;-65
2023/04/05 10:04:41;;;;;;;3.07;2.80;;;;;;;;;;6210810;23;20375;-65
2023/04/05 10:07:14;;;;;;;2.80;2.60;;;;;;;;;;6209645;23;20387;-66
2023/04/05 10:09:41;;;;;;;3.17;3.03;;;;;;;;;;6209909;23;20442;-65
2023/04/05 10:12:08;;;;;;;3.27;2.83;;;;;;;;;;6208348;23;20940;-66
2023/04/05 10:14:35;;;;;;;4.27;3.73;;;;;;;;;;6210506;23;20819;-66
2023/04/05 10:17:01;;;;;;;3.50;3.40;;;;;;;;;;6210056;23;20383;-66
2023/04/05 10:19:46;;;;;;;2.93;2.47;;;;;;;;;;6209807;23;20379;-65
2023/04/05 10:22:14;;;;;;;3.67;3.30;;;;;;;;;;6209803;23;20498;-65
2023/04/05 10:24:46;;;;;;;3.83;3.50;;;;;;;;;;6209223;23;20402;-66
2023/04/05 10:27:19;;;;;;;3.40;3.27;;;;;;;;;;6210027;23;20401;-66
2023/04/05 10:29:56;;;;;;;9.43;3.07;;;;;;;;;;6210159;23;20838;-66
2023/04/05 10:32:41;;;;;;;3.40;3.20;;;;;;;;;;6209856;23;20462;-66
2023/04/05 10:35:19;;;;;;;3.30;3.00;;;;;;;;;;6210176;23;21428;-65
2023/04/05 10:37:54;;;;;;;2.80;2.80;;;;;;;;;;6209970;23;20588;-65
2023/04/05 10:40:21;;;;;;;6.60;3.50;;;;;;;;;;6209486;23;20390;-66
2023/04/05 10:42:48;;;;;;;2.37;2.37;;;;;;;;;;6209157;23;20942;-65
2023/04/05 10:45:18;;;;;;;2.57;2.47;;;;;;;;;;6209982;23;20407;-65
2023/04/05 10:47:49;;;;;;;3.57;2.67;;;;;;;;;;6210001;23;20425;-66
2023/04/05 10:50:19;;;;;;;4.07;3.20;;;;;;;;;;6208890;23;20381;-65
2023/04/05 10:52:46;;;;;;;2.03;1.97;;;;;;;;;;6210544;23;20425;-66
2023/04/05 10:55:12;;;;;;;6.33;3.43;;;;;;;;;;6209703;23;20426;-65
2023/04/05 10:57:39;;;;;;;3.10;2.87;;;;;;;;;;6207930;23;20399;-65
2023/04/05 11:00:06;;;;;;;3.37;2.40;;;;;;;;;;6209614;23;20754;-65
2023/04/05 11:02:32;;;;;;;3.10;3.03;;;;;;;;;;6210252;23;20379;-65
2023/04/05 11:05:03;;;;;;;3.40;3.20;;;;;;;;;;6210480;23;20385;-68
2023/04/05 11:07:41;;;;;;;3.30;3.20;;;;;;;;;;6209270;23;20462;-65
2023/04/05 11:10:16;;;;;;;3.87;3.57;;;;;;;;;;6209682;23;20441;-65
2023/04/05 11:12:45;;;;;;;3.37;3.07;;;;;;;;;;6209314;23;20754;-65
2023/04/05 11:15:26;;;;;;;3.33;2.70;;;;;;;;;;6209850;23;20759;-66
2023/04/05 11:18:11;;;;;;;3.03;2.83;;;;;;;;;;6209704;23;20384;-67
2023/04/05 11:20:44;;;;;;;2.73;2.67;;;;;;;;;;6209579;23;20371;-65
2023/04/05 11:23:11;;;;;;;4.13;2.80;;;;;;;;;;6210136;23;20402;-67
2023/04/05 11:25:41;;;;;;;2.90;2.80;;;;;;;;;;6209154;23;20371;-66
2023/04/05 11:28:08;;;;;;;3.27;3.17;;;;;;;;;;6209263;23;20383;-65
2023/04/05 11:30:55;;;;;;;3.10;2.83;;;;;;;;;;6208981;23;20375;-66
2023/04/05 11:33:40;;;;;;;3.03;2.80;;;;;;;;;;6207336;23;20387;-66
2023/04/05 11:36:06;;;;;;;3.20;2.97;;;;;;;;;;6207662;23;20449;-67
2023/04/05 11:38:32;;;;;;;2.47;2.37;;;;;;;;;;6209668;23;20951;-66
2023/04/05 11:41:06;;;;;;;2.70;2.60;;;;;;;;;;6209529;23;20419;-66
2023/04/05 11:43:37;;;;;;;3.30;3.20;;;;;;;;;;6208897;23;20395;-67
2023/04/05 11:46:03;;;;;;;3.20;3.10;;;;;;;;;;6209451;23;20383;-66
2023/04/05 11:48:29;;;;;;;2.90;2.80;;;;;;;;;;6209880;23;20910;-66
2023/04/05 11:50:57;;;;;;;3.80;2.00;;;;;;;;;;6209393;23;20871;-65
2023/04/05 11:53:23;;;;;;;2.90;2.70;;;;;;;;;;6210205;23;20379;-67
2023/04/05 11:55:50;;;;;;;2.67;2.57;;;;;;;;;;6209142;23;20457;-65
2023/04/05 11:58:17;;;;;;;2.87;2.67;;;;;;;;;;6209384;23;20391;-65
2023/04/05 12:00:44;;;;;;;3.37;3.27;;;;;;;;;;6208448;23;20383;-68
2023/04/05 12:03:16;;;;;;;3.43;3.17;;;;;;;;;;6211791;23;20382;-65
2023/04/05 12:05:52;;;;;;;3.20;2.90;;;;;;;;;;6211238;23;20383;-66
2023/04/05 12:08:19;;;;;;;2.90;2.70;;;;;;;;;;6211551;23;20429;-66
2023/04/05 12:10:53;;;;;;;2.30;2.20;;;;;;;;;;6210703;23;20700;-66
2023/04/05 12:13:29;;;;;;;2.73;2.63;;;;;;;;;;6210976;23;20370;-66
2023/04/05 12:15:57;;;;;;;3.40;3.20;;;;;;;;;;6210822;23;20434;-66
2023/04/05 12:18:25;;;;;;;3.57;2.67;;;;;;;;;;6211367;23;20394;-66
2023/04/05 12:20:52;;;;;;;3.03;2.87;;;;;;;;;;6210716;23;20935;-66
2023/04/05 12:23:18;;;;;;;2.30;2.20;;;;;;;;;;6211030;23;20720;-65
2023/04/05 12:25:52;;;;;;;3.40;3.10;;;;;;;;;;6210510;23;20382;-66
2023/04/05 12:28:18;;;;;;;1.73;1.63;;;;;;;;;;6211522;23;20387;-66
2023/04/05 12:30:51;;;;;;;4.47;3.27;;;;;;;;;;6210946;23;20383;-65
2023/04/05 12:33:31;;;;;;;3.27;3.10;;;;;;;;;;6211335;23;20374;-66
2023/04/05 12:35:58;;;;;;;3.93;3.67;;;;;;;;;;6210948;23;20438;-65
2023/04/05 12:38:25;;;;;;;3.27;3.07;;;;;;;;;;6209786;23;20498;-67
2023/04/05 12:40:53;;;;;;;3.23;3.10;;;;;;;;;;6210077;23;20387;-65
2023/04/05 12:43:19;;;;;;;4.13;3.33;;;;;;;;;;6210784;23;20466;-66
2023/04/05 12:45:45;;;;;;;2.80;2.50;;;;;;;;;;6211006;23;20383;-67
2023/04/05 12:48:12;;;;;;;2.37;2.20;;;;;;;;;;6210926;23;20900;-65
2023/04/05 12:50:42;;;;;;;3.13;2.93;;;;;;;;;;6211364;23;20483;-67
2023/04/05 12:53:08;;;;;;;7.90;3.30;;;;;;;;;;6211030;23;20378;-66
2023/04/05 12:55:38;;;;;;;2.50;2.30;;;;;;;;;;6210822;23;20439;-66
2023/04/05 12:58:05;;;;;;;2.83;2.60;;;;;;;;;;6210299;23;20383;-66
2023/04/05 13:00:31;;;;;;;3.63;2.70;;;;;;;;;;6210482;23;20435;-65
2023/04/05 13:02:58;;;;;;;6.03;2.97;;;;;;;;;;6210047;23;20390;-66
2023/04/05 13:05:25;;;;;;;4.07;3.30;;;;;;;;;;6210286;23;20407;-66
2023/04/05 13:07:52;;;;;;;3.20;3.10;;;;;;;;;;6210957;23;20416;-66
2023/04/05 13:10:22;;;;;;;2.67;2.57;;;;;;;;;;6209816;23;20387;-65
2023/04/05 13:12:49;;;;;;;1.83;1.83;;;;;;;;;;6210430;23;20530;-66
2023/04/05 13:15:15;;;;;;;3.30;2.23;;;;;;;;;;6210287;23;20430;-66
2023/04/05 13:17:41;;;;;;;2.83;2.63;;;;;;;;;;6209375;23;20565;-65
2023/04/05 13:20:08;;;;;;;2.53;2.40;;;;;;;;;;6209730;23;20868;-68
2023/04/05 13:22:34;;;;;;;3.20;2.90;;;;;;;;;;6209643;23;20383;-65
2023/04/05 13:25:01;;;;;;;2.70;2.50;;;;;;;;;;6210675;23;20384;-65
2023/04/05 13:27:27;;;;;;;3.13;2.83;;;;;;;;;;6210033;23;20445;-66
2023/04/05 13:29:53;;;;;;;2.67;2.50;;;;;;;;;;6210907;23;20857;-67
2023/04/05 13:32:19;;;;;;;3.00;2.80;;;;;;;;;;6210464;23;20434;-66
2023/04/05 13:34:45;;;;;;;2.83;2.63;;;;;;;;;;6208760;23;20745;-66
2023/04/05 13:37:11;;;;;;;3.43;3.20;;;;;;;;;;6210439;23;20767;-65
2023/04/05 13:39:37;;;;;;;4.10;3.60;;;;;;;;;;6210943;23;20371;-67
2023/04/05 13:42:03;;;;;;;2.90;2.70;;;;;;;;;;6206579;23;21095;-70
2023/04/05 13:44:30;;;;;;;2.73;2.50;;;;;;;;;;6211003;23;20379;-65
2023/04/05 13:46:56;;;;;;;3.50;3.10;;;;;;;;;;6209247;23;20415;-65
2023/04/05 13:49:22;;;;;;;4.87;2.97;;;;;;;;;;6210219;23;20383;-65
2023/04/05 13:51:48;;;;;;;3.27;2.97;;;;;;;;;;6209733;23;20888;-65
2023/04/05 13:54:14;;;;;;;3.77;3.40;;;;;;;;;;6208962;23;20376;-66
2023/04/05 13:56:40;;;;;;;3.30;3.10;;;;;;;;;;6208396;23;20974;-66
2023/04/05 13:59:06;;;;;;;2.53;2.47;;;;;;;;;;6209421;23;20374;-65
2023/04/05 14:01:33;;;;;;;2.33;2.33;;;;;;;;;;6208490;23;20414;-66
2023/04/05 14:03:59;;;;;;;2.83;2.63;;;;;;;;;;6209872;23;21012;-66
2023/04/05 14:06:26;;;;;;;3.13;2.50;;;;;;;;;;6209720;23;20880;-66
2023/04/05 14:08:54;;;;;;;4.40;2.90;;;;;;;;;;6209818;23;20391;-66
2023/04/05 14:11:23;;;;;;;2.87;2.77;;;;;;;;;;6209202;23;20446;-67
2023/04/05 14:13:50;;;;;;;2.37;2.37;;;;;;;;;;6208706;23;20391;-67
2023/04/05 14:16:16;;;;;;;3.60;3.50;;;;;;;;;;6158393;23;20424;-66
2023/04/05 14:18:42;;;;;;;3.07;2.87;;;;;;;;;;6209485;23;20227;-65
2023/04/05 14:21:08;;;;;;;2.87;2.77;;;;;;;;;;6208463;23;20772;-65
2023/04/05 14:23:34;;;;;;;2.63;2.57;;;;;;;;;;6208619;23;20469;-66
2023/04/05 14:26:00;;;;;;;3.30;2.90;;;;;;;;;;6209328;23;20478;-68
2023/04/05 14:28:26;;;;;;;2.70;2.50;;;;;;;;;;6210430;23;20830;-67
2023/04/05 14:30:52;;;;;;;2.90;2.83;;;;;;;;;;6209082;23;20383;-65
2023/04/05 14:33:18;;;;;;;3.53;3.43;;;;;;;;;;6208024;23;20762;-65
2023/04/05 14:35:44;;;;;;;3.23;3.10;;;;;;;;;;6209284;23;20437;-66
2023/04/05 14:38:10;;;;;;;3.23;3.03;;;;;;;;;;6209804;23;20492;-64
2023/04/05 14:40:36;;;;;;;3.47;2.80;;;;;;;;;;6209583;23;20828;-66
2023/04/05 14:43:02;;;;;;;2.40;2.20;;;;;;;;;;6209657;23;20387;-65
2023/04/05 14:45:28;;;;;;;2.70;2.50;;;;;;;;;;6209698;23;20399;-65
2023/04/05 14:47:55;;;;;;;2.90;2.80;;;;;;;;;;6210216;23;20378;-65
2023/04/05 14:50:21;;;;;;;2.47;2.27;;;;;;;;;;6209660;23;20387;-66
2023/04/05 14:52:47;;;;;;;2.87;1.80;;;;;;;;;;6209951;23;20384;-65